Monday, December 22, 2014
09:53 UTC
  |  Log In   |  Register Free
Airport Search:

Coffeyville Municipal Airport
(KCFV)

Coffeyville Municipal Airport Diagram
No Airport Diagram Available

FAA data valid effective November 13, 2014 - January 08, 2015 (unless otherwise noted).

 
 
 
 
 
 
 
 
 
 
 
 
 
 

Current Aviation Weather for Coffeyville Municipal Airport (KCFV)

The most recent METAR observation for KCFV was updated at: 2112
METAR Summary (Translated METAR)
KCFV
182104Z AUTO 34006KT 10SM SCT009 OVC014 04/02 A3017 RMK AO2 T00390022
KIDP
182055Z AUTO 33006G14KT 10SM OVC009 02/01 A3017 RMK AO2
(10.6 nm NW from KCFV)
KPPF
182052Z AUTO 32006KT 10SM OVC010 03/02 A3018 RMK AO2 SLP226 T00330022 55008
(14.6 nm NE from KCFV)
TAF
No TAF information found within 50 nm of KCFV
  Airport Weather Conditions for KCFV

 Current Weather at CFV
45° F
Overcast
South winds at 8.1 mph
CFV NOAA Radar

Pressure: 29.65 in
Humidity: 93%
Wind: South at 8.1 MPH (7 KT)
Dew Point: 43.0°F
Visibility: 8.00 mi


Airport Weather Forecast for KCFV

Translated METAR and TAF for KCFV
Translated METAR for KCFV (0954 UTC 22 December 2014)
found at http://aviationweather.gov/adds/metars/
 
METAR text: KCFV 220852Z AUTO 16007KT 8SM BKN020 OVC035 07/06 A2965 RMK AO2 SLP043 60000 T00720061 56023
Conditions at: KCFV (COFFEYVILLE , KS, US) observed 0852 UTC 22 December 2014
Temperature: 7.2°C (45°F)
Dewpoint: 6.1°C (43°F) [RH = 93%]
Pressure (altimeter): 29.65 inches Hg (1004.1 mb)
[Sea-level pressure: 1004.3 mb]
Winds: from the SSE (160 degrees) at 8 MPH (7 knots; 3.6 m/s)
Visibility: 8 miles (13 km)
Ceiling: 2000 feet AGL
Clouds: broken clouds at 2000 feet AGL
overcast cloud deck at 3500 feet AGL
Weather: automated observation with no human augmentation;
there may or may not be significant weather present at this time
Translated TAF for KCFV

There is no translated TAF available for this airport

Find All Airport Services Find A Hotel Find A Rental Car Find A Golf Course Find A Restaurant $100 Hamburger



FBO's on the Field
FBO Company Facility Photos Services Transportation Aviation Fuel Prices: Prices include tax
Catering Weather Repair Courtesy Rental Type 100LL JetA JetA+ MOGAS 8087
 
Coffeyville Aircraft, Inc

This FBO has not yet been rated
FS:Phillips 66
Last Updated: Dec-12
Login to update fuel prices
SS:
Contact Coffeyville Aircraft, IncMore FBO Information
 
Add another FBO Facility Photos Catering Weather Repair Courtesy Rental Type 100LL JetA JetA+ MOGAS 8087
Services Transportation Aviation Fuel Prices: Prices include tax


model-print
model-print
model-print
model-print